createdAt,value
2017-03-01T00:00:50.656Z,0
2017-03-01T00:02:03.808Z,0
2017-03-01T00:03:16.882Z,0
2017-03-01T00:04:30.000Z,0
2017-03-01T00:05:43.095Z,0
2017-03-01T00:06:56.142Z,0
2017-03-01T00:08:09.231Z,0
2017-03-01T00:09:22.310Z,0
2017-03-01T00:10:35.006Z,0
2017-03-01T00:11:48.101Z,0
2017-03-01T00:13:00.819Z,0
2017-03-01T00:14:13.889Z,0
2017-03-01T00:15:26.584Z,0
2017-03-01T00:16:39.222Z,0
2017-03-01T00:17:51.857Z,0
2017-03-01T00:19:04.917Z,0
2017-03-01T00:20:18.261Z,0
2017-03-01T00:21:31.338Z,0
2017-03-01T00:22:44.413Z,0
2017-03-01T00:23:57.456Z,0
2017-03-01T00:25:10.147Z,0
2017-03-01T00:26:23.223Z,0
2017-03-01T00:27:35.898Z,0
2017-03-01T00:28:48.990Z,0
2017-03-01T00:30:02.091Z,0
2017-03-01T00:31:14.781Z,0
2017-03-01T00:32:27.859Z,0
2017-03-01T00:33:40.953Z,0
2017-03-01T00:34:54.037Z,0
2017-03-01T00:36:06.718Z,0
2017-03-01T00:37:19.788Z,0
2017-03-01T00:38:32.881Z,0
2017-03-01T00:39:45.934Z,0
2017-03-01T00:40:59.024Z,0
2017-03-01T00:42:11.725Z,0
2017-03-01T00:43:24.436Z,0
2017-03-01T00:44:37.128Z,0
2017-03-01T00:45:50.182Z,0
2017-03-01T00:47:03.458Z,0
2017-03-01T00:48:15.751Z,0
2017-03-01T00:49:28.447Z,0
2017-03-01T00:50:41.493Z,0
2017-03-01T00:51:54.589Z,0
2017-03-01T00:53:07.292Z,0
2017-03-01T00:54:20.396Z,0
2017-03-01T00:55:33.498Z,0
2017-03-01T00:56:46.575Z,0
2017-03-01T00:57:59.516Z,0
2017-03-01T00:59:12.606Z,0
2017-03-01T01:00:25.308Z,0
2017-03-01T01:01:37.667Z,0
2017-03-01T01:02:50.752Z,0
2017-03-01T01:04:03.816Z,0
2017-03-01T01:05:16.869Z,0
2017-03-01T01:06:29.936Z,0
2017-03-01T01:07:43.011Z,0
2017-03-01T01:08:56.120Z,0
2017-03-01T01:10:09.200Z,0
2017-03-01T01:11:21.870Z,0
2017-03-01T01:12:34.922Z,0
2017-03-01T01:13:48.015Z,0
2017-03-01T01:15:01.082Z,0
2017-03-01T01:16:13.754Z,0
2017-03-01T01:17:26.453Z,0
2017-03-01T01:18:38.729Z,0
2017-03-01T01:19:51.817Z,0
2017-03-01T01:21:04.934Z,0
2017-03-01T01:22:18.000Z,0
2017-03-01T01:23:30.730Z,0
2017-03-01T01:24:43.795Z,0
2017-03-01T01:25:56.839Z,0
2017-03-01T01:27:09.923Z,0
2017-03-01T01:28:23.022Z,0
2017-03-01T01:29:36.079Z,0
2017-03-01T01:30:49.382Z,0
2017-03-01T01:32:02.048Z,0
2017-03-01T01:33:15.192Z,0
2017-03-01T01:34:28.294Z,0
2017-03-01T01:35:40.592Z,0
2017-03-01T01:36:53.687Z,0
2017-03-01T01:38:06.783Z,0
2017-03-01T01:39:19.854Z,0
2017-03-01T01:40:32.948Z,0
2017-03-01T01:41:45.099Z,0
2017-03-01T01:42:58.141Z,0
2017-03-01T01:44:11.227Z,0
2017-03-01T01:45:24.280Z,0
2017-03-01T01:46:37.376Z,0
2017-03-01T01:47:50.096Z,0
2017-03-01T01:49:03.165Z,0
2017-03-01T01:50:16.233Z,0
2017-03-01T01:51:29.316Z,0
2017-03-01T01:52:42.360Z,0
2017-03-01T01:53:55.425Z,0
2017-03-01T01:55:08.497Z,0
2017-03-01T01:56:21.572Z,0
2017-03-01T01:57:34.606Z,0
2017-03-01T01:58:47.727Z,0
2017-03-01T02:00:00.834Z,0
2017-03-01T02:01:13.532Z,0
2017-03-01T02:02:26.554Z,0
2017-03-01T02:03:39.870Z,0
2017-03-01T02:04:52.963Z,0
2017-03-01T02:06:05.633Z,0
2017-03-01T02:07:18.323Z,0
2017-03-01T02:08:31.410Z,0
2017-03-01T02:09:44.547Z,0
2017-03-01T02:10:57.239Z,0
2017-03-01T02:12:10.368Z,0
2017-03-01T02:13:23.440Z,0
2017-03-01T02:14:36.151Z,0
2017-03-01T02:15:49.201Z,0
2017-03-01T02:17:02.251Z,0
2017-03-01T02:18:15.323Z,0
2017-03-01T02:19:28.011Z,0
2017-03-01T02:20:41.107Z,0
2017-03-01T02:21:54.249Z,0
2017-03-01T02:23:07.330Z,0
2017-03-01T02:24:20.040Z,0
2017-03-01T02:25:32.997Z,0
2017-03-01T02:26:45.689Z,0
2017-03-01T02:27:58.744Z,0
2017-03-01T02:29:11.436Z,0
2017-03-01T02:30:24.132Z,0
2017-03-01T02:31:36.429Z,0
2017-03-01T02:32:49.498Z,0
2017-03-01T02:34:02.193Z,0
2017-03-01T02:35:15.313Z,0
2017-03-01T02:36:28.032Z,0
2017-03-01T02:37:41.059Z,0
2017-03-01T02:38:54.129Z,0
2017-03-01T02:40:07.197Z,0
2017-03-01T02:41:20.286Z,0
2017-03-01T02:42:33.336Z,0
2017-03-01T02:43:46.403Z,0
2017-03-01T02:44:59.456Z,0
2017-03-01T02:46:12.123Z,0
2017-03-01T02:47:25.174Z,0
2017-03-01T02:48:38.246Z,0
2017-03-01T02:49:51.311Z,0
2017-03-01T02:51:04.377Z,0
2017-03-01T02:52:17.454Z,0
2017-03-01T02:53:30.520Z,0
2017-03-01T02:54:43.587Z,0
2017-03-01T02:55:56.658Z,0
2017-03-01T02:57:09.707Z,0
2017-03-01T02:58:23.024Z,0
2017-03-01T02:59:35.680Z,0
2017-03-01T03:00:48.406Z,0
2017-03-01T03:02:01.504Z,0
2017-03-01T03:03:14.561Z,0
2017-03-01T03:04:27.640Z,0
2017-03-01T03:05:40.686Z,0
2017-03-01T03:06:53.378Z,0
2017-03-01T03:08:06.455Z,0
2017-03-01T03:09:19.122Z,0
2017-03-01T03:10:31.795Z,0
2017-03-01T03:11:44.870Z,0
2017-03-01T03:12:57.911Z,0
2017-03-01T03:14:10.583Z,0
2017-03-01T03:15:23.278Z,0
2017-03-01T03:16:36.370Z,0
2017-03-01T03:17:49.434Z,0
2017-03-01T03:19:02.540Z,0
2017-03-01T03:20:15.458Z,0
2017-03-01T03:21:28.556Z,0
2017-03-01T03:22:41.270Z,0
2017-03-01T03:23:53.967Z,0
2017-03-01T03:25:07.066Z,0
2017-03-01T03:26:20.155Z,0
2017-03-01T03:27:32.829Z,0
2017-03-01T03:28:45.497Z,0
2017-03-01T03:29:58.550Z,0
2017-03-01T03:31:11.251Z,0
2017-03-01T03:32:23.921Z,0
2017-03-01T03:33:36.583Z,0
2017-03-01T03:34:48.886Z,0
2017-03-01T03:36:01.959Z,0
2017-03-01T03:37:15.017Z,0
2017-03-01T03:38:28.073Z,0
2017-03-01T03:39:40.773Z,0
2017-03-01T03:40:53.813Z,0
2017-03-01T03:42:07.176Z,0
2017-03-01T03:43:19.859Z,0
2017-03-01T03:44:32.926Z,0
2017-03-01T03:45:45.239Z,0
2017-03-01T03:46:58.301Z,0
2017-03-01T03:48:11.021Z,0
2017-03-01T03:49:24.126Z,0
2017-03-01T03:50:37.205Z,0
2017-03-01T03:51:50.269Z,0
2017-03-01T03:53:03.325Z,0
2017-03-01T03:54:16.418Z,0
2017-03-01T03:55:29.496Z,0
2017-03-01T03:56:42.227Z,0
2017-03-01T03:57:55.314Z,0
2017-03-01T03:59:08.009Z,0
2017-03-01T04:00:21.128Z,0
2017-03-01T04:01:34.178Z,0
2017-03-01T04:02:46.838Z,0
2017-03-01T04:03:59.885Z,0
2017-03-01T04:05:12.581Z,0
2017-03-01T04:06:25.652Z,0
2017-03-01T04:07:38.702Z,0
2017-03-01T04:08:51.801Z,0
2017-03-01T04:10:04.856Z,0
2017-03-01T04:11:17.960Z,0
2017-03-01T04:12:31.027Z,0
2017-03-01T04:13:44.095Z,0
2017-03-01T04:14:57.177Z,0
2017-03-01T04:16:10.248Z,0
2017-03-01T04:17:22.907Z,0
2017-03-01T04:18:35.935Z,0
2017-03-01T04:19:48.999Z,0
2017-03-01T04:21:01.707Z,0
2017-03-01T04:22:14.398Z,0
2017-03-01T04:23:27.519Z,0
2017-03-01T04:24:40.636Z,0
2017-03-01T04:25:53.336Z,0
2017-03-01T04:27:06.424Z,0
2017-03-01T04:28:19.502Z,0
2017-03-01T04:29:32.551Z,0
2017-03-01T04:30:45.870Z,0
2017-03-01T04:31:58.933Z,0
2017-03-01T04:33:11.990Z,0
2017-03-01T04:34:25.040Z,0
2017-03-01T04:35:37.707Z,0
2017-03-01T04:36:50.742Z,0
2017-03-01T04:38:03.819Z,0
2017-03-01T04:39:16.919Z,0
2017-03-01T04:40:29.632Z,0
2017-03-01T04:41:42.349Z,0
2017-03-01T04:42:55.434Z,0
2017-03-01T04:44:08.515Z,0
2017-03-01T04:45:21.198Z,0
2017-03-01T04:46:34.258Z,0
2017-03-01T04:47:47.164Z,0
2017-03-01T04:49:00.278Z,0
2017-03-01T04:50:12.952Z,0
2017-03-01T04:51:25.677Z,0
2017-03-01T04:52:38.744Z,0
2017-03-01T04:53:51.775Z,0
2017-03-01T04:55:04.889Z,0
2017-03-01T04:56:17.941Z,0
2017-03-01T04:57:31.031Z,0
2017-03-01T04:58:43.690Z,0
2017-03-01T04:59:56.786Z,0
2017-03-01T05:01:09.832Z,0
2017-03-01T05:02:22.904Z,0
2017-03-01T05:03:35.962Z,0
2017-03-01T05:04:49.034Z,0
2017-03-01T05:06:02.103Z,0
2017-03-01T05:07:14.769Z,0
2017-03-01T05:08:27.847Z,0
2017-03-01T05:09:40.930Z,0
2017-03-01T05:10:53.974Z,0
2017-03-01T05:12:07.003Z,0
2017-03-01T05:13:19.334Z,0
2017-03-01T05:14:32.048Z,0
2017-03-01T05:15:44.758Z,0
2017-03-01T05:16:57.839Z,0
2017-03-01T05:18:10.903Z,0
2017-03-01T05:19:23.601Z,0
2017-03-01T05:20:36.681Z,0
2017-03-01T05:21:49.775Z,0
2017-03-01T05:23:02.815Z,0
2017-03-01T05:24:15.908Z,0
2017-03-01T05:25:28.603Z,0
2017-03-01T05:26:41.679Z,0
2017-03-01T05:27:54.749Z,0
2017-03-01T05:29:07.820Z,0
2017-03-01T05:30:20.894Z,0
2017-03-01T05:31:33.813Z,0
2017-03-01T05:32:46.907Z,0
2017-03-01T05:33:59.979Z,0
2017-03-01T05:35:12.678Z,0
2017-03-01T05:36:25.770Z,0
2017-03-01T05:37:38.464Z,0
2017-03-01T05:38:51.164Z,0
2017-03-01T05:40:04.226Z,0
2017-03-01T05:41:17.304Z,0
2017-03-01T05:42:30.600Z,0
2017-03-01T05:43:43.315Z,0
2017-03-01T05:44:55.970Z,5
2017-03-01T05:46:09.034Z,5
2017-03-01T05:47:21.701Z,5
2017-03-01T05:48:34.356Z,5
2017-03-01T05:49:47.445Z,5
2017-03-01T05:51:00.096Z,5
2017-03-01T05:52:12.770Z,10
2017-03-01T05:53:25.813Z,10
2017-03-01T05:54:38.885Z,10
2017-03-01T05:55:51.934Z,15
2017-03-01T05:57:05.004Z,15
2017-03-01T05:58:18.300Z,15
2017-03-01T05:59:31.345Z,20
2017-03-01T06:00:44.409Z,20
2017-03-01T06:01:57.113Z,25
2017-03-01T06:03:10.154Z,30
2017-03-01T06:04:22.832Z,35
2017-03-01T06:05:35.901Z,35
2017-03-01T06:06:48.935Z,40
2017-03-01T06:08:02.041Z,40
2017-03-01T06:09:15.139Z,45
2017-03-01T06:10:27.462Z,45
2017-03-01T06:11:40.547Z,50
2017-03-01T06:12:53.647Z,50
2017-03-01T06:14:06.696Z,50
2017-03-01T06:15:19.764Z,55
2017-03-01T06:16:32.103Z,60
2017-03-01T06:17:44.802Z,60
2017-03-01T06:18:57.927Z,65
2017-03-01T06:20:10.629Z,65
2017-03-01T06:21:23.647Z,70
2017-03-01T06:22:36.317Z,75
2017-03-01T06:23:49.363Z,75
2017-03-01T06:25:02.427Z,75
2017-03-01T06:26:15.127Z,75
2017-03-01T06:27:28.197Z,80
2017-03-01T06:28:41.272Z,80
2017-03-01T06:29:54.320Z,80
2017-03-01T06:31:07.415Z,85
2017-03-01T06:32:20.459Z,85
2017-03-01T06:33:33.528Z,90
2017-03-01T06:34:46.244Z,90
2017-03-01T06:35:59.295Z,95
2017-03-01T06:37:12.371Z,95
2017-03-01T06:38:25.418Z,95
2017-03-01T06:39:38.535Z,100
2017-03-01T06:40:51.245Z,100
2017-03-01T06:42:04.327Z,100
2017-03-01T06:43:16.995Z,105
2017-03-01T06:44:30.083Z,105
2017-03-01T06:45:43.169Z,110
2017-03-01T06:46:56.278Z,110
2017-03-01T06:48:08.998Z,115
2017-03-01T06:49:21.307Z,115
2017-03-01T06:50:34.365Z,120
2017-03-01T06:51:47.444Z,120
2017-03-01T06:53:00.107Z,125
2017-03-01T06:54:12.808Z,130
2017-03-01T06:55:25.874Z,130
2017-03-01T06:56:38.955Z,130
2017-03-01T06:57:52.051Z,130
2017-03-01T06:59:05.375Z,130
2017-03-01T07:00:18.465Z,135
2017-03-01T07:01:30.775Z,135
2017-03-01T07:02:43.879Z,135
2017-03-01T07:03:56.968Z,140
2017-03-01T07:05:09.675Z,140
2017-03-01T07:06:22.770Z,145
2017-03-01T07:07:35.895Z,145
2017-03-01T07:08:48.985Z,150
2017-03-01T07:10:02.058Z,150
2017-03-01T07:11:15.160Z,155
2017-03-01T07:12:28.264Z,150
2017-03-01T07:13:41.350Z,145
2017-03-01T07:14:53.983Z,150
2017-03-01T07:16:07.035Z,155
2017-03-01T07:17:19.708Z,150
2017-03-01T07:18:32.442Z,160
2017-03-01T07:19:45.525Z,175
2017-03-01T07:20:58.221Z,185
2017-03-01T07:22:11.341Z,200
2017-03-01T07:23:24.434Z,235
2017-03-01T07:24:37.097Z,260
2017-03-01T07:25:50.375Z,305
2017-03-01T07:27:03.432Z,345
2017-03-01T07:28:16.498Z,325
2017-03-01T07:29:29.209Z,275
2017-03-01T07:30:42.260Z,255
2017-03-01T07:31:55.430Z,270
2017-03-01T07:33:08.119Z,295
2017-03-01T07:34:20.801Z,295
2017-03-01T07:35:33.493Z,265
2017-03-01T07:36:46.571Z,270
2017-03-01T07:37:59.289Z,275
2017-03-01T07:39:12.383Z,325
2017-03-01T07:40:24.676Z,340
2017-03-01T07:41:37.744Z,325
2017-03-01T07:42:50.792Z,315
2017-03-01T07:44:03.468Z,305
2017-03-01T07:45:16.155Z,265
2017-03-01T07:46:29.252Z,265
2017-03-01T07:47:42.307Z,290
2017-03-01T07:48:55.375Z,260
2017-03-01T07:50:08.051Z,250
2017-03-01T07:51:21.114Z,235
2017-03-01T07:52:34.193Z,225
2017-03-01T07:53:46.831Z,235
2017-03-01T07:54:59.902Z,225
2017-03-01T07:56:12.599Z,225
2017-03-01T07:57:25.272Z,220
2017-03-01T07:58:38.557Z,220
2017-03-01T07:59:51.660Z,230
2017-03-01T08:01:04.356Z,235
2017-03-01T08:02:17.412Z,225
2017-03-01T08:03:30.498Z,225
2017-03-01T08:04:43.587Z,235
2017-03-01T08:05:56.644Z,245
2017-03-01T08:07:09.715Z,255
2017-03-01T08:08:22.764Z,315
2017-03-01T08:09:35.874Z,285
2017-03-01T08:10:48.945Z,280
2017-03-01T08:12:02.066Z,265
2017-03-01T08:13:15.218Z,230
2017-03-01T08:14:27.916Z,240
2017-03-01T08:15:40.632Z,235
2017-03-01T08:16:53.694Z,225
2017-03-01T08:18:06.356Z,235
2017-03-01T08:19:19.495Z,230
2017-03-01T08:20:32.216Z,230
2017-03-01T08:21:44.915Z,230
2017-03-01T08:22:57.589Z,230
2017-03-01T08:24:10.681Z,235
2017-03-01T08:25:23.742Z,235
2017-03-01T08:26:36.473Z,235
2017-03-01T08:27:49.542Z,230
2017-03-01T08:29:02.654Z,235
2017-03-01T08:30:15.698Z,240
2017-03-01T08:31:28.737Z,245
2017-03-01T08:32:41.430Z,245
2017-03-01T08:33:54.492Z,260
2017-03-01T08:35:07.570Z,250
2017-03-01T08:36:20.666Z,260
2017-03-01T08:37:33.713Z,265
2017-03-01T08:38:46.410Z,295
2017-03-01T08:39:59.104Z,410
2017-03-01T08:41:12.139Z,430
2017-03-01T08:42:25.195Z,425
2017-03-01T08:43:38.262Z,425
2017-03-01T08:44:51.338Z,290
2017-03-01T08:46:04.060Z,265
2017-03-01T08:47:17.145Z,260
2017-03-01T08:48:29.468Z,255
2017-03-01T08:49:42.572Z,255
2017-03-01T08:50:55.667Z,260
2017-03-01T08:52:08.359Z,275
2017-03-01T08:53:21.425Z,315
2017-03-01T08:54:34.497Z,290
2017-03-01T08:55:47.571Z,340
2017-03-01T08:57:00.264Z,345
2017-03-01T08:58:13.320Z,360
2017-03-01T08:59:26.384Z,335
2017-03-01T09:00:39.091Z,305
2017-03-01T09:01:52.176Z,295
2017-03-01T09:03:04.850Z,305
2017-03-01T09:04:17.894Z,355
2017-03-01T09:05:30.168Z,405
2017-03-01T09:06:42.883Z,425
2017-03-01T09:07:55.585Z,385
2017-03-01T09:09:08.669Z,390
2017-03-01T09:10:21.750Z,410
2017-03-01T09:11:34.819Z,425
2017-03-01T09:12:47.882Z,440
2017-03-01T09:14:00.956Z,450
2017-03-01T09:15:14.010Z,440
2017-03-01T09:16:26.702Z,455
2017-03-01T09:17:39.418Z,460
2017-03-01T09:18:52.498Z,455
2017-03-01T09:20:05.190Z,450
2017-03-01T09:21:18.281Z,430
2017-03-01T09:22:30.939Z,425
2017-03-01T09:23:44.001Z,410
2017-03-01T09:24:56.744Z,405
2017-03-01T09:26:09.447Z,415
2017-03-01T09:27:22.136Z,420
2017-03-01T09:28:35.253Z,430
2017-03-01T09:29:48.335Z,445
2017-03-01T09:31:01.024Z,470
2017-03-01T09:32:13.701Z,500
2017-03-01T09:33:26.762Z,545
2017-03-01T09:34:39.840Z,510
2017-03-01T09:35:52.915Z,485
2017-03-01T09:37:06.011Z,495
2017-03-01T09:38:18.674Z,505
2017-03-01T09:39:30.969Z,575
2017-03-01T09:40:43.662Z,715
2017-03-01T09:41:56.336Z,690
2017-03-01T09:43:08.663Z,640
2017-03-01T09:44:21.763Z,585
2017-03-01T09:45:34.909Z,565
2017-03-01T09:46:48.001Z,605
2017-03-01T09:48:01.073Z,620
2017-03-01T09:49:13.798Z,615
2017-03-01T09:50:26.508Z,590
2017-03-01T09:51:39.608Z,590
2017-03-01T09:52:52.682Z,590
2017-03-01T09:54:05.755Z,565
2017-03-01T09:55:18.445Z,530
2017-03-01T09:56:31.508Z,500
2017-03-01T09:57:44.569Z,530
2017-03-01T09:58:57.225Z,565
2017-03-01T10:00:09.945Z,525
2017-03-01T10:01:22.644Z,525
2017-03-01T10:02:35.720Z,545
2017-03-01T10:03:48.790Z,530
2017-03-01T10:05:01.838Z,560
2017-03-01T10:06:14.134Z,565
2017-03-01T10:07:27.175Z,535
2017-03-01T10:08:39.906Z,515
2017-03-01T10:09:52.966Z,490
2017-03-01T10:11:06.049Z,460
2017-03-01T10:12:19.119Z,475
2017-03-01T10:13:32.258Z,540
2017-03-01T10:14:45.372Z,550
2017-03-01T10:15:58.467Z,610
2017-03-01T10:17:11.589Z,650
2017-03-01T10:18:24.684Z,690
2017-03-01T10:19:37.730Z,505
2017-03-01T10:20:50.783Z,490
2017-03-01T10:22:03.459Z,525
2017-03-01T10:23:16.525Z,470
2017-03-01T10:24:29.600Z,425
2017-03-01T10:25:42.721Z,395
2017-03-01T10:26:55.791Z,390
2017-03-01T10:28:08.487Z,410
2017-03-01T10:29:21.547Z,390
2017-03-01T10:30:34.608Z,405
2017-03-01T10:31:47.675Z,405
2017-03-01T10:33:00.374Z,400
2017-03-01T10:34:13.034Z,415
2017-03-01T10:35:26.136Z,475
2017-03-01T10:36:39.200Z,470
2017-03-01T10:37:51.126Z,525
2017-03-01T10:39:03.814Z,605
2017-03-01T10:40:16.513Z,625
2017-03-01T10:41:29.617Z,570
2017-03-01T10:42:42.362Z,540
2017-03-01T10:43:55.062Z,570
2017-03-01T10:45:08.169Z,690
2017-03-01T10:46:21.218Z,750
2017-03-01T10:47:33.521Z,690
2017-03-01T10:48:46.583Z,565
2017-03-01T10:49:59.275Z,580
2017-03-01T10:51:11.973Z,720
2017-03-01T10:52:24.648Z,560
2017-03-01T10:53:36.999Z,475
2017-03-01T10:54:50.114Z,405
2017-03-01T10:56:03.190Z,465
2017-03-01T10:57:16.252Z,495
2017-03-01T10:58:29.300Z,665
2017-03-01T10:59:42.375Z,785
2017-03-01T11:00:55.422Z,820
2017-03-01T11:02:08.471Z,790
2017-03-01T11:03:21.540Z,735
2017-03-01T11:04:34.585Z,765
2017-03-01T11:05:47.673Z,860
2017-03-01T11:07:00.754Z,775
2017-03-01T11:08:13.448Z,765
2017-03-01T11:09:26.126Z,845
2017-03-01T11:10:38.764Z,915
2017-03-01T11:11:51.809Z,845
2017-03-01T11:13:04.513Z,790
2017-03-01T11:14:17.606Z,785
2017-03-01T11:15:30.750Z,765
2017-03-01T11:16:43.439Z,660
2017-03-01T11:17:56.138Z,635
2017-03-01T11:19:08.863Z,615
2017-03-01T11:20:21.812Z,580
2017-03-01T11:21:34.876Z,545
2017-03-01T11:22:47.178Z,470
2017-03-01T11:24:00.297Z,410
2017-03-01T11:25:12.985Z,425
2017-03-01T11:26:26.081Z,430
2017-03-01T11:27:39.159Z,420
2017-03-01T11:28:52.226Z,395
2017-03-01T11:30:04.953Z,340
2017-03-01T11:31:18.022Z,360
2017-03-01T11:32:30.697Z,390
2017-03-01T11:33:43.781Z,365
2017-03-01T11:34:56.476Z,330
2017-03-01T11:36:09.526Z,305
2017-03-01T11:37:22.597Z,280
2017-03-01T11:38:35.689Z,275
2017-03-01T11:39:48.736Z,300
2017-03-01T11:41:01.415Z,290
2017-03-01T11:42:14.731Z,245
2017-03-01T11:43:27.780Z,210
2017-03-01T11:44:40.476Z,270
2017-03-01T11:45:53.193Z,335
2017-03-01T11:47:06.245Z,300
2017-03-01T11:48:18.953Z,360
2017-03-01T11:49:32.076Z,460
2017-03-01T11:50:44.769Z,635
2017-03-01T11:51:57.822Z,490
2017-03-01T11:53:10.923Z,400
2017-03-01T11:54:23.989Z,305
2017-03-01T11:55:37.085Z,260
2017-03-01T11:56:50.206Z,345
2017-03-01T11:58:03.256Z,460
2017-03-01T11:59:16.351Z,415
2017-03-01T12:00:29.450Z,420
2017-03-01T12:01:42.585Z,600
2017-03-01T12:02:55.688Z,725
2017-03-01T12:04:08.776Z,490
2017-03-01T12:05:21.847Z,515
2017-03-01T12:06:34.931Z,730
2017-03-01T12:07:48.083Z,600
2017-03-01T12:09:01.164Z,500
2017-03-01T12:10:14.239Z,620
2017-03-01T12:11:27.289Z,470
2017-03-01T12:12:40.005Z,425
2017-03-01T12:13:52.669Z,300
2017-03-01T12:15:05.735Z,400
2017-03-01T12:16:18.792Z,360
2017-03-01T12:17:31.477Z,310
2017-03-01T12:18:44.560Z,455
2017-03-01T12:19:57.612Z,445
2017-03-01T12:21:10.673Z,520
2017-03-01T12:22:23.336Z,650
2017-03-01T12:23:35.617Z,500
2017-03-01T12:24:48.663Z,415
2017-03-01T12:26:01.736Z,440
2017-03-01T12:27:14.434Z,405
2017-03-01T12:28:27.097Z,355
2017-03-01T12:29:40.162Z,520
2017-03-01T12:30:53.218Z,495
2017-03-01T12:32:06.315Z,695
2017-03-01T12:33:19.374Z,690
2017-03-01T12:34:32.458Z,555
2017-03-01T12:35:45.569Z,465
2017-03-01T12:36:58.669Z,405
2017-03-01T12:38:11.407Z,435
2017-03-01T12:39:24.488Z,405
2017-03-01T12:40:37.533Z,290
2017-03-01T12:41:50.602Z,280
2017-03-01T12:43:03.666Z,335
2017-03-01T12:44:16.336Z,460
2017-03-01T12:45:29.373Z,450
2017-03-01T12:46:42.479Z,410
2017-03-01T12:47:55.573Z,445
2017-03-01T12:49:07.870Z,505
2017-03-01T12:50:20.170Z,370
2017-03-01T12:51:33.220Z,295
2017-03-01T12:52:45.934Z,310
2017-03-01T12:53:59.003Z,270
2017-03-01T12:55:12.088Z,250
2017-03-01T12:56:24.773Z,230
2017-03-01T12:57:37.874Z,215
2017-03-01T12:58:50.945Z,195
2017-03-01T13:00:04.016Z,215
2017-03-01T13:01:16.304Z,265
2017-03-01T13:02:29.361Z,290
2017-03-01T13:03:42.431Z,270
2017-03-01T13:04:55.100Z,275
2017-03-01T13:06:08.180Z,290
2017-03-01T13:07:21.242Z,325
2017-03-01T13:08:33.155Z,250
2017-03-01T13:09:46.207Z,170
2017-03-01T13:10:58.480Z,140
2017-03-01T13:12:10.833Z,165
2017-03-01T13:13:23.488Z,175
2017-03-01T13:14:35.793Z,200
2017-03-01T13:15:48.867Z,225
2017-03-01T13:17:01.976Z,240
2017-03-01T13:18:14.304Z,225
2017-03-01T13:19:27.397Z,220
2017-03-01T13:20:40.493Z,190
2017-03-01T13:21:53.246Z,195
2017-03-01T13:23:06.344Z,200
2017-03-01T13:24:19.034Z,150
2017-03-01T13:25:30.951Z,140
2017-03-01T13:26:44.045Z,140
2017-03-01T13:27:57.089Z,190
2017-03-01T13:29:09.385Z,235
2017-03-01T13:30:21.685Z,270
2017-03-01T13:31:33.986Z,320
2017-03-01T13:32:46.658Z,375
2017-03-01T13:33:59.355Z,370
2017-03-01T13:35:12.049Z,460
2017-03-01T13:36:25.088Z,560
2017-03-01T13:37:38.165Z,575
2017-03-01T13:38:50.880Z,840
2017-03-01T13:40:03.573Z,915
2017-03-01T13:41:15.844Z,810
2017-03-01T13:42:28.550Z,775
2017-03-01T13:43:41.646Z,755
2017-03-01T13:44:54.330Z,735
2017-03-01T13:46:06.988Z,685
2017-03-01T13:47:19.283Z,785
2017-03-01T13:48:31.958Z,750
2017-03-01T13:49:44.675Z,575
2017-03-01T13:50:57.746Z,505
2017-03-01T13:52:10.835Z,520
2017-03-01T13:53:23.905Z,525
2017-03-01T13:54:37.009Z,570
2017-03-01T13:55:49.720Z,510
2017-03-01T13:57:02.775Z,520
2017-03-01T13:58:15.486Z,510
2017-03-01T13:59:28.592Z,490
2017-03-01T14:00:41.660Z,440
2017-03-01T14:01:54.409Z,475
2017-03-01T14:03:07.518Z,470
2017-03-01T14:04:19.424Z,485
2017-03-01T14:05:32.464Z,510
2017-03-01T14:06:45.556Z,455
2017-03-01T14:07:58.239Z,425
2017-03-01T14:09:10.907Z,310
2017-03-01T14:10:23.195Z,295
2017-03-01T14:11:35.921Z,260
2017-03-01T14:12:48.247Z,225
2017-03-01T14:14:01.325Z,230
2017-03-01T14:15:14.015Z,270
2017-03-01T14:16:26.686Z,295
2017-03-01T14:17:39.782Z,300
2017-03-01T14:18:52.502Z,230
2017-03-01T14:20:04.801Z,160
2017-03-01T14:21:17.495Z,195
2017-03-01T14:22:30.170Z,205
2017-03-01T14:23:43.248Z,155
2017-03-01T14:24:55.979Z,170
2017-03-01T14:26:08.655Z,155
2017-03-01T14:27:21.721Z,130
2017-03-01T14:28:34.423Z,170
2017-03-01T14:29:46.741Z,265
2017-03-01T14:30:59.839Z,270
2017-03-01T14:32:12.529Z,205
2017-03-01T14:33:24.825Z,215
2017-03-01T14:34:37.889Z,220
2017-03-01T14:35:50.594Z,155
2017-03-01T14:37:02.892Z,170
2017-03-01T14:38:16.005Z,120
2017-03-01T14:39:28.681Z,120
2017-03-01T14:40:41.047Z,85
2017-03-01T14:41:54.455Z,115
2017-03-01T14:43:07.535Z,125
2017-03-01T14:44:20.218Z,150
2017-03-01T14:45:32.881Z,150
2017-03-01T14:46:45.580Z,170
2017-03-01T14:47:58.629Z,195
2017-03-01T14:49:11.703Z,195
2017-03-01T14:50:24.793Z,210
2017-03-01T14:51:37.468Z,225
2017-03-01T14:52:50.530Z,220
2017-03-01T14:54:03.210Z,235
2017-03-01T14:55:15.531Z,210
2017-03-01T14:56:28.651Z,175
2017-03-01T14:57:41.723Z,170
2017-03-01T14:58:54.436Z,205
2017-03-01T15:00:07.131Z,245
2017-03-01T15:01:19.782Z,275
2017-03-01T15:02:32.456Z,255
2017-03-01T15:03:45.544Z,215
2017-03-01T15:04:58.266Z,205
2017-03-01T15:06:11.016Z,200
2017-03-01T15:07:24.079Z,185
2017-03-01T15:08:36.778Z,175
2017-03-01T15:09:49.859Z,170
2017-03-01T15:11:02.979Z,160
2017-03-01T15:12:16.049Z,155
2017-03-01T15:13:29.117Z,165
2017-03-01T15:14:42.187Z,250
2017-03-01T15:15:54.887Z,255
2017-03-01T15:17:07.973Z,190
2017-03-01T15:18:20.668Z,185
2017-03-01T15:19:33.353Z,170
2017-03-01T15:20:46.085Z,190
2017-03-01T15:21:59.130Z,170
2017-03-01T15:23:12.199Z,205
2017-03-01T15:24:24.876Z,225
2017-03-01T15:25:37.559Z,210
2017-03-01T15:26:49.500Z,180
2017-03-01T15:28:02.593Z,165
2017-03-01T15:29:15.718Z,165
2017-03-01T15:30:28.788Z,180
2017-03-01T15:31:41.509Z,180
2017-03-01T15:32:54.251Z,185
2017-03-01T15:34:06.972Z,150
2017-03-01T15:35:20.046Z,185
2017-03-01T15:36:32.759Z,180
2017-03-01T15:37:45.455Z,175
2017-03-01T15:38:58.499Z,190
2017-03-01T15:40:11.185Z,185
2017-03-01T15:41:23.840Z,165
2017-03-01T15:42:36.536Z,145
2017-03-01T15:43:49.617Z,130
2017-03-01T15:45:02.714Z,115
2017-03-01T15:46:15.813Z,85
2017-03-01T15:47:28.901Z,60
2017-03-01T15:48:41.552Z,55
2017-03-01T15:49:54.614Z,75
2017-03-01T15:51:07.662Z,80
2017-03-01T15:52:19.988Z,70
2017-03-01T15:53:33.038Z,50
2017-03-01T15:54:45.702Z,55
2017-03-01T15:55:58.416Z,70
2017-03-01T15:57:11.461Z,75
2017-03-01T15:58:24.786Z,75
2017-03-01T15:59:37.464Z,80
2017-03-01T16:00:50.212Z,90
2017-03-01T16:02:03.309Z,140
2017-03-01T16:03:16.403Z,145
2017-03-01T16:04:29.075Z,150
2017-03-01T16:05:42.141Z,120
2017-03-01T16:06:54.429Z,105
2017-03-01T16:08:07.487Z,95
2017-03-01T16:09:20.556Z,90
2017-03-01T16:10:33.223Z,75
2017-03-01T16:11:46.290Z,70
2017-03-01T16:12:59.337Z,65
2017-03-01T16:14:12.419Z,65
2017-03-01T16:15:25.485Z,65
2017-03-01T16:16:38.604Z,65
2017-03-01T16:17:51.670Z,60
2017-03-01T16:19:04.754Z,60
2017-03-01T16:20:17.841Z,60
2017-03-01T16:21:30.529Z,55
2017-03-01T16:22:43.233Z,55
2017-03-01T16:23:56.279Z,55
2017-03-01T16:25:09.354Z,55
2017-03-01T16:26:22.428Z,55
2017-03-01T16:27:35.474Z,50
2017-03-01T16:28:48.165Z,50
2017-03-01T16:30:01.233Z,45
2017-03-01T16:31:13.178Z,45
2017-03-01T16:32:26.275Z,40
2017-03-01T16:33:38.975Z,40
2017-03-01T16:34:52.096Z,35
2017-03-01T16:36:05.130Z,30
2017-03-01T16:37:18.226Z,30
2017-03-01T16:38:31.250Z,25
2017-03-01T16:39:43.955Z,25
2017-03-01T16:40:57.021Z,20
2017-03-01T16:42:09.696Z,15
2017-03-01T16:43:22.808Z,15
2017-03-01T16:44:35.929Z,10
2017-03-01T16:45:49.005Z,10
2017-03-01T16:47:02.057Z,10
2017-03-01T16:48:14.746Z,10
2017-03-01T16:49:27.448Z,10
2017-03-01T16:50:39.742Z,5
2017-03-01T16:51:52.803Z,5
2017-03-01T16:53:05.463Z,5
2017-03-01T16:54:18.525Z,5
2017-03-01T16:55:31.221Z,5
2017-03-01T16:56:43.914Z,0
2017-03-01T16:57:56.607Z,0
2017-03-01T16:59:09.683Z,0
2017-03-01T17:00:22.809Z,0
2017-03-01T17:01:35.582Z,0
2017-03-01T17:02:48.246Z,0
2017-03-01T17:04:00.910Z,0
2017-03-01T17:05:14.008Z,0
2017-03-01T17:06:26.688Z,0
2017-03-01T17:07:39.775Z,0
2017-03-01T17:08:52.446Z,0
2017-03-01T17:10:05.518Z,0
2017-03-01T17:11:18.247Z,0
2017-03-01T17:12:30.550Z,0
2017-03-01T17:13:43.611Z,0